My Meet Scores
Alexandria Moore, St. Charles Gymnastics Academy - MyMeetScores.com
Top100 | Top Teams | Upcoming Meets | Completed Meets | Latest | Add Scores | Help| Support | Bookmark and Share

Alexandria Moore, St. Charles Gymnastics Academy
Personal Bests
LevelVault BarsBeamFloorAA
38.8508.650 8.4758.40034.375
48.4759.625 9.4509.30036.650
68.8509.225 9.4259.52536.800
AllLevels7.5258.075 8.0008.12531.725
Meet Scores
Date Meet Team Session Level Division Vault Bars Beam Floor AA
2019-03-15 Illinois State Championship Level 6,9,10 St. Charles Gymnastics Academy 12 6 Jr E 8.500 20 8.825 15 9.425 4 9.475 8T 36.225 14
2019-02-15 Women's Midwest Open St. Charles Gymnastics Academy 01 6 Junior A 8.450 8 9.200 4T 8.950 8 9.400 10 36.000 7
2019-01-11 St Jude Benefit Meet St. Charles Gymnastics Academy 2B 6 Jr A 8.400 6 9.150 5T 9.100 6 9.450 6T 36.100 3
2018-12-07 St. Nick Invite 2018 St. Charles Gymnastics Academy 2 6 JrB 8.200 12 9.225 4 9.300 5T 9.300 10 36.025 9T
2018-03-16 2018 Illinois Level 6, 9, 10 State Championships St. Charles Gymnastics Academy 08 6 Ch B 8.750 21 9.000 13T 9.325 12 9.525 15T 36.600 15
2018-02-23 Kinetic Classic St. Charles Gymnastics Academy 9 6 Younger 8.750 39T 9.175 23T 9.400 12T 9.475 19T 36.800 21
2018-02-16 Big Classic St. Charles Gymnastics Academy 1A 6 Junior A 8.400 13 8.775 10 9.200 9 9.300 8 35.675 10
2018-01-19 2018 SCEGA California Classic St. Charles Gymnastics Academy 1O 6 Child B 7.800 18 8.625 15 8.775 14T 9.000 17 34.200 16
2018-01-12 St Jude Benefit Meet St. Charles Gymnastics Academy 4C 6 JrA 8.100 14 8.875 9 9.275 6 9.100 11T 35.350 10
2017-12-14 2017 Women's Hawaiian Pineapple Classic St. Charles Gymnastics Academy 9A 6 Ages10U 8.475 18 8.950 13T 8.700 18 9.150 15T 35.275 19
2017-12-01 Ultimate Wish Classic St. Charles Gymnastics Academy 9 6 CH 8.550 15 8.800 9 9.050 6T 9.250 10T 35.650 10
2017-11-17 SCGA Classic St. Charles Gymnastics Academy 3 6 JrA 8.850 11 8.800 5 9.000 6 9.250 6 35.900 5
2017-03-10 2017 Illinois Level 4 State Championships St. Charles Gymnastics Academy 2 4 Ch E 8.475 24 9.200 5 9.425 9 8.725 17T 35.825 12
2017-02-10 IGI Chicago Style Gymnastics Meet St. Charles Gymnastics Academy 621L 4 JrA 8.100 17 9.225 6 9.150 9 8.850 10 35.325 11
2017-01-20 2017 Bravo Classic St. Charles Gymnastics Academy 07B 4 9yrs 8.375 9T 9.625 3 9.400 7 9.250 4T 36.650 3
2017-01-13 St Jude Benefit Meet St. Charles Gymnastics Academy 3A 4 Jr B 7.800 13 8.850 7T 9.450 3T 8.875 6 34.975 4
2016-12-15 2016 Hawaiian Pineapple Sanction St. Charles Gymnastics Academy 9A 4 Age 9 8.050 20T 8.975 9 9.400 3T 9.300 6 35.725 8
2016-12-02 Ultimate Wish Classic St. Charles Gymnastics Academy 13 4 Jr B 8.300 17T 8.650 6T 9.300 2T 8.850 10 35.100 8
2016-02-05 St. Valentines Classic St. Charles Gymnastics Academy 1A AllLevels All Ages 7.525 79 8.075 49 8.000 44T 8.125 56 31.725 60
2016-01-22 King Arthur Invitational St. Charles Gymnastics Academy S12 4 Jr.A 7.075 17 7.450 18 9.025 6 8.450 15 32.000 17
2016-01-08 St Jude Benefit Meet St. Charles Gymnastics Academy 4A 4 Jr A 7.450 23T 7.600 21 8.900 15 7.400 23 31.350 23
2015-12-17 2015 Hawaiian Pineapple Classic St. Charles Gymnastics Academy 1A 4 Ages 8U 7.500 16 7.650 12 8.000 20 8.725 12 31.875 15T
2015-12-04 2015 Ultimate Wish Classic St. Charles Gymnastics Academy 7 4 All 7.650 76 7.450 77 7.850 78 8.000 76 30.950 78
2015-02-20 Midwest Open 2015 St. Charles Gymnastics Academy 3A 3 6-7 8.850 9 8.650 9 8.475 8 8.400 10 34.375 10
Get your scores on
a t-shirt, pin, or hoodie

www.lazysuits.com